This is the latest recevied weather packets stored in our database for station/object K7AZM. If no packets are shown the sender has not sent any weather packets the latest 10 day(s).
| Time | Temp. | Humidity | Pressure | Rain* | Wind** | Luminosity | Snow |
|---|---|---|---|---|---|---|---|
| 1778080223 | 20° C | 35% | 1017.6 hPa | 0 mm | - | - | - |
| 1778078143 | 19.44° C | 36% | 1017.7 hPa | 0 mm | - | - | - |
| 1778075723 | 16.67° C | 43% | 1016.9 hPa | 0 mm | - | - | - |
| 1778071523 | 12.22° C | 52% | 1015.7 hPa | 0 mm | - | - | - |
| 1778065523 | 13.33° C | 52% | 1014.9 hPa | 0 mm | - | - | - |
| 1778063724 | 13.89° C | 49% | 1014.8 hPa | 0 mm | - | - | - |
| 1778063424 | 13.89° C | 49% | 1014.8 hPa | 0 mm | - | - | - |
| 1778061623 | 13.89° C | 48% | 1014.7 hPa | 0 mm | - | - | - |
| 1778060423 | 13.89° C | 46% | 1014.7 hPa | 0 mm | - | - | - |
| 1778059823 | 14.44° C | 45% | 1014.7 hPa | 0 mm | - | - | - |
| 1778058924 | 14.44° C | 45% | 1014.5 hPa | 0 mm | - | - | - |
| 1778055923 | 15° C | 45% | 1014.4 hPa | 0 mm | - | - | - |
| 1778054723 | 16.11° C | 43% | 1014.3 hPa | 0 mm | - | - | - |
| 1778051424 | 16.67° C | 41% | 1014 hPa | 0 mm | - | - | - |
| 1778049323 | 18.89° C | 36% | 1014.1 hPa | 0 mm | - | - | - |
| 1778048723 | 18.89° C | 35% | 1014.1 hPa | 0 mm | - | - | - |
| 1778046923 | 19.44° C | 34% | 1014 hPa | 0 mm | - | - | - |
| 1778046624 | 19.44° C | 34% | 1014 hPa | 0 mm | - | - | - |
| 1778046323 | 19.44° C | 33% | 1013.9 hPa | 0 mm | - | - | - |
| 1778039723 | 20.56° C | 29% | 1012.7 hPa | 0 mm | - | - | - |
| 1778039123 | 21.11° C | 29% | 1012.7 hPa | 0 mm | - | - | - |
| 1778037023 | 21.11° C | 28% | 1012.3 hPa | 0 mm | - | - | - |
| 1778032545 | 22.78° C | 26% | 1011.1 hPa | 0 mm | - | - | - |
| 1778030723 | 23.33° C | 26% | 1010.8 hPa | 0 mm | - | - | - |
| 1778030123 | 23.33° C | 26% | 1010.7 hPa | 0 mm | - | - | - |
* Rain latest hour (hover to see other rain measurements)
** Current wind speed in m/s (hover to see current wind gust speed)